createdAt,value
2023-08-18T00:00:45.126Z,101924.72
2023-08-18T00:02:52.711Z,101922.66
2023-08-18T00:04:58.168Z,101920.59
2023-08-18T00:07:00.427Z,101916.56
2023-08-18T00:09:09.253Z,101916.84
2023-08-18T00:11:14.423Z,101910.50
2023-08-18T00:13:19.633Z,101910.81
2023-08-18T00:15:25.507Z,101920.34
2023-08-18T00:17:31.117Z,101915.03
2023-08-18T00:19:36.424Z,101908.94
2023-08-18T00:21:41.504Z,101908.34
2023-08-18T00:23:46.826Z,101909.53
2023-08-18T00:25:56.409Z,101901.75
2023-08-18T00:28:01.578Z,101897.44
2023-08-18T00:30:07.198Z,101892.13
2023-08-18T00:32:12.069Z,101895.63
2023-08-18T00:34:17.030Z,101894.72
2023-08-18T00:36:24.628Z,101897.44
2023-08-18T00:38:29.571Z,101892.97
2023-08-18T00:40:34.557Z,101896.34
2023-08-18T00:42:42.492Z,101896.06
2023-08-18T00:44:47.636Z,101898.84
2023-08-18T00:46:53.119Z,101894.44
2023-08-18T00:49:02.646Z,101893.69
2023-08-18T00:51:08.873Z,101888.28
2023-08-18T00:53:11.932Z,101895.16
2023-08-18T00:55:17.596Z,101893.50
2023-08-18T00:57:23.898Z,101889.81
2023-08-18T00:59:33.445Z,101885.78
2023-08-18T01:01:36.588Z,101881.25
2023-08-18T01:03:41.841Z,101884.22
2023-08-18T01:05:47.182Z,101871.53
2023-08-18T01:07:52.462Z,101881.41
2023-08-18T01:09:59.141Z,101884.06
2023-08-18T01:12:16.895Z,101877.19
2023-08-18T01:14:36.486Z,101878.75
2023-08-18T01:16:52.837Z,101883.13
2023-08-18T01:19:00.590Z,101881.66
2023-08-18T01:21:08.431Z,101882.34
2023-08-18T01:23:15.883Z,101890.50
2023-08-18T01:25:20.876Z,101885.25
2023-08-18T01:27:26.347Z,101885.66
2023-08-18T01:29:32.147Z,101885.34
2023-08-18T01:31:40.844Z,101879.25
2023-08-18T01:33:57.807Z,101880.09
2023-08-18T01:36:06.283Z,101888.19
2023-08-18T01:38:12.917Z,101880.63
2023-08-18T01:40:22.383Z,101876.16
2023-08-18T01:42:30.717Z,101871.19
2023-08-18T01:44:35.946Z,101863.31
2023-08-18T01:46:41.016Z,101855.22
2023-08-18T01:48:46.431Z,101856.22
2023-08-18T01:50:54.912Z,101861.69
2023-08-18T01:52:57.289Z,101860.22
2023-08-18T01:55:02.585Z,101856.53
2023-08-18T01:57:07.577Z,101864.84
2023-08-18T01:59:12.605Z,101857.97
2023-08-18T02:01:17.696Z,101860.13
2023-08-18T02:03:20.234Z,101860.91
2023-08-18T02:05:29.872Z,101855.88
2023-08-18T02:07:37.912Z,101857.00
2023-08-18T02:09:43.097Z,101857.00
2023-08-18T02:11:48.159Z,101858.53
2023-08-18T02:13:55.914Z,101846.84
2023-08-18T02:16:01.161Z,101850.69
2023-08-18T02:18:03.745Z,101852.28
2023-08-18T02:20:10.950Z,101846.16
2023-08-18T02:22:15.979Z,101837.00
2023-08-18T02:24:20.972Z,101847.34
2023-08-18T02:26:28.616Z,101835.78
2023-08-18T02:28:34.070Z,101832.44
2023-08-18T02:30:41.754Z,101836.91
2023-08-18T02:32:46.021Z,101836.00
2023-08-18T02:34:51.116Z,101833.75
2023-08-18T02:36:56.305Z,101827.53
2023-08-18T02:39:01.251Z,101827.75
2023-08-18T02:41:06.659Z,101836.84
2023-08-18T02:43:11.738Z,101825.19
2023-08-18T02:45:16.775Z,101821.94
2023-08-18T02:47:24.523Z,101815.81
2023-08-18T02:49:29.959Z,101817.63
2023-08-18T02:51:36.058Z,101813.00
2023-08-18T02:53:43.036Z,101807.69
2023-08-18T02:55:49.591Z,101807.47
2023-08-18T02:57:58.174Z,101813.34
2023-08-18T03:00:04.334Z,101810.00
2023-08-18T03:02:09.478Z,101811.53
2023-08-18T03:04:17.262Z,101811.00
2023-08-18T03:06:24.837Z,101810.84
2023-08-18T03:08:30.348Z,101811.78
2023-08-18T03:10:36.049Z,101817.94
2023-08-18T03:12:41.073Z,101805.69
2023-08-18T03:14:46.111Z,101805.69
2023-08-18T03:16:51.434Z,101801.38
2023-08-18T03:18:56.567Z,101807.84
2023-08-18T03:21:06.384Z,101810.41
2023-08-18T03:23:09.052Z,101806.69
2023-08-18T03:25:14.137Z,101807.69
2023-08-18T03:27:16.667Z,101810.06
2023-08-18T03:29:25.990Z,101795.78
2023-08-18T03:31:34.316Z,101794.81
2023-08-18T03:33:40.121Z,101800.75
2023-08-18T03:35:45.265Z,101803.28
2023-08-18T03:37:52.992Z,101803.34
2023-08-18T03:39:56.242Z,101815.13
2023-08-18T03:42:01.281Z,101801.63
2023-08-18T03:44:09.590Z,101806.00
2023-08-18T03:46:29.623Z,101803.66
2023-08-18T03:48:37.586Z,101807.19
2023-08-18T03:50:40.747Z,101798.25
2023-08-18T03:52:45.689Z,101796.38
2023-08-18T03:54:56.070Z,101794.22
2023-08-18T03:57:01.300Z,101794.75
2023-08-18T03:59:06.882Z,101802.94
2023-08-18T04:01:25.995Z,101801.44
2023-08-18T04:03:28.687Z,101802.53
2023-08-18T04:05:34.060Z,101795.66
2023-08-18T04:07:39.106Z,101802.06
2023-08-18T04:09:44.159Z,101798.47
2023-08-18T04:12:00.256Z,101796.66
2023-08-18T04:14:06.723Z,101795.97
2023-08-18T04:16:12.121Z,101806.28
2023-08-18T04:18:17.236Z,101815.03
2023-08-18T04:20:23.030Z,101816.88
2023-08-18T04:22:26.905Z,101820.56
2023-08-18T04:24:32.095Z,101815.94
2023-08-18T04:26:38.899Z,101817.06
2023-08-18T04:28:47.612Z,101810.16
2023-08-18T04:30:52.889Z,101825.81
2023-08-18T04:32:58.580Z,101819.53
2023-08-18T04:35:04.506Z,101818.00
2023-08-18T04:37:09.602Z,101821.13
2023-08-18T04:39:12.359Z,101813.59
2023-08-18T04:41:17.089Z,101812.06
2023-08-18T04:43:19.554Z,101811.91
2023-08-18T04:45:27.153Z,101818.06
2023-08-18T04:47:32.095Z,101812.59
2023-08-18T04:49:37.148Z,101814.25
2023-08-18T04:51:43.023Z,101816.03
2023-08-18T04:53:48.165Z,101816.19
2023-08-18T04:55:56.250Z,101820.97
2023-08-18T04:58:01.387Z,101814.94
2023-08-18T05:00:08.439Z,101818.13
2023-08-18T05:02:16.339Z,101816.56
2023-08-18T05:04:22.311Z,101818.47
2023-08-18T05:06:27.701Z,101822.19
2023-08-18T05:08:30.452Z,101819.16
2023-08-18T05:10:35.059Z,101811.78
2023-08-18T05:12:40.600Z,101805.69
2023-08-18T05:14:45.718Z,101801.06
2023-08-18T05:16:48.916Z,101800.41
2023-08-18T05:18:57.086Z,101806.47
2023-08-18T05:21:03.462Z,101801.00
2023-08-18T05:23:06.943Z,101795.34
2023-08-18T05:25:13.101Z,101802.88
2023-08-18T05:28:03.292Z,101799.91
2023-08-18T05:30:27.708Z,101796.31
2023-08-18T05:32:51.685Z,101792.88
2023-08-18T05:35:00.902Z,101796.31
2023-08-18T05:37:06.170Z,101795.22
2023-08-18T05:39:11.402Z,101794.97
2023-08-18T05:41:17.883Z,101798.59
2023-08-18T05:43:22.957Z,101794.19
2023-08-18T05:45:34.049Z,101794.81
2023-08-18T05:47:39.329Z,101795.66
2023-08-18T05:49:44.516Z,101790.75
2023-08-18T05:51:52.437Z,101785.91
2023-08-18T05:53:57.638Z,101782.72
2023-08-18T05:56:03.319Z,101785.59
2023-08-18T05:58:09.238Z,101789.03
2023-08-18T06:00:16.232Z,101781.91
2023-08-18T06:02:21.164Z,101782.38
2023-08-18T06:04:26.194Z,101782.19
2023-08-18T06:06:34.191Z,101786.50
2023-08-18T06:08:41.668Z,101791.97
2023-08-18T06:10:47.069Z,101792.41
2023-08-18T06:12:52.770Z,101795.31
2023-08-18T06:14:58.212Z,101795.44
2023-08-18T06:17:03.373Z,101781.28
2023-08-18T06:19:09.853Z,101791.44
2023-08-18T06:21:14.945Z,101792.31
2023-08-18T06:23:20.228Z,101792.03
2023-08-18T06:25:37.816Z,101787.09
2023-08-18T06:27:42.944Z,101785.47
2023-08-18T06:29:48.062Z,101778.94
2023-08-18T06:32:01.642Z,101780.28
2023-08-18T06:34:06.749Z,101780.66
2023-08-18T06:36:11.976Z,101778.34
2023-08-18T06:38:25.677Z,101784.38
2023-08-18T06:40:33.156Z,101789.03
2023-08-18T06:42:38.816Z,101787.81
2023-08-18T06:44:43.829Z,101788.59
2023-08-18T06:46:48.900Z,101791.25
2023-08-18T06:49:02.426Z,101791.31
2023-08-18T06:51:07.599Z,101795.91
2023-08-18T06:53:12.769Z,101795.59
2023-08-18T06:55:20.764Z,101804.53
2023-08-18T06:57:32.706Z,101802.31
2023-08-18T06:59:37.938Z,101790.88
2023-08-18T07:01:43.078Z,101799.66
2023-08-18T07:03:49.570Z,101797.16
2023-08-18T07:06:00.630Z,101796.88
2023-08-18T07:08:06.033Z,101791.41
2023-08-18T07:10:12.586Z,101785.13
2023-08-18T07:12:17.634Z,101789.16
2023-08-18T07:14:26.631Z,101793.84
2023-08-18T07:16:29.319Z,101781.22
2023-08-18T07:18:36.997Z,101779.22
2023-08-18T07:20:41.931Z,101779.63
2023-08-18T07:22:47.635Z,101769.50
2023-08-18T07:24:53.122Z,101769.16
2023-08-18T07:26:59.611Z,101765.72
2023-08-18T07:29:08.362Z,101764.81
2023-08-18T07:31:19.313Z,101769.22
2023-08-18T07:33:24.735Z,101766.09
2023-08-18T07:35:31.505Z,101768.47
2023-08-18T07:39:47.702Z,101753.53
2023-08-18T07:41:53.001Z,101762.41
2023-08-18T07:44:00.700Z,101755.75
2023-08-18T07:46:06.701Z,101760.69
2023-08-18T07:48:16.058Z,101754.50
2023-08-18T07:50:21.458Z,101756.06
2023-08-18T07:52:27.648Z,101753.97
2023-08-18T07:54:33.364Z,101744.03
2023-08-18T07:56:38.677Z,101744.16
2023-08-18T07:58:44.138Z,101738.16
2023-08-18T08:00:49.760Z,101741.28
2023-08-18T08:02:55.473Z,101744.34
2023-08-18T08:05:06.938Z,101757.63
2023-08-18T08:07:11.983Z,101750.22
2023-08-18T08:09:17.058Z,101746.47
2023-08-18T08:11:22.277Z,101741.44
2023-08-18T08:13:27.559Z,101752.63
2023-08-18T08:15:34.629Z,101754.34
2023-08-18T08:17:41.698Z,101755.50
2023-08-18T08:19:50.877Z,101762.47
2023-08-18T08:21:59.602Z,101753.69
2023-08-18T08:24:06.438Z,101748.09
2023-08-18T08:26:11.999Z,101745.03
2023-08-18T08:28:19.217Z,101747.34
2023-08-18T08:30:36.155Z,101744.84
2023-08-18T08:32:42.082Z,101751.06
2023-08-18T08:34:53.125Z,101752.16
2023-08-18T08:37:01.037Z,101760.91
2023-08-18T08:39:06.956Z,101757.00
2023-08-18T08:41:12.445Z,101753.88
2023-08-18T08:43:17.877Z,101759.28
2023-08-18T08:45:24.604Z,101760.44
2023-08-18T08:47:30.608Z,101762.56
2023-08-18T08:49:38.641Z,101769.22
2023-08-18T08:51:47.624Z,101773.91
2023-08-18T08:54:04.401Z,101773.25
2023-08-18T08:56:11.936Z,101775.84
2023-08-18T08:58:17.222Z,101784.44
2023-08-18T09:00:28.036Z,101779.88
2023-08-18T09:02:34.037Z,101776.69
2023-08-18T09:04:40.101Z,101782.06
2023-08-18T09:06:45.138Z,101775.03
2023-08-18T09:08:50.288Z,101772.75
2023-08-18T09:11:01.889Z,101769.22
2023-08-18T09:16:12.892Z,101781.03
2023-08-18T09:18:18.869Z,101780.03
2023-08-18T09:20:27.758Z,101780.09
2023-08-18T09:22:38.330Z,101773.72
2023-08-18T09:24:50.220Z,101774.38
2023-08-18T09:26:58.395Z,101762.47
2023-08-18T09:29:04.302Z,101756.53
2023-08-18T09:31:09.276Z,101757.75
2023-08-18T09:33:14.378Z,101748.72
2023-08-18T09:35:26.034Z,101751.09
2023-08-18T09:37:38.142Z,101751.91
2023-08-18T09:39:43.237Z,101747.56
2023-08-18T09:41:57.624Z,101756.81
2023-08-18T09:44:05.627Z,101753.78
2023-08-18T09:46:13.141Z,101757.56
2023-08-18T09:48:20.078Z,101765.59
2023-08-18T09:50:29.175Z,101760.72
2023-08-18T09:52:35.263Z,101752.16
2023-08-18T09:54:48.470Z,101744.88
2023-08-18T09:57:01.072Z,101746.97
2023-08-18T09:59:19.065Z,101745.88
2023-08-18T10:01:29.831Z,101736.56
2023-08-18T10:03:40.659Z,101731.69
2023-08-18T10:05:47.768Z,101736.41
2023-08-18T10:07:55.020Z,101727.69
2023-08-18T10:10:01.899Z,101721.88
2023-08-18T10:12:08.359Z,101730.97
2023-08-18T10:14:16.064Z,101734.91
2023-08-18T10:16:22.419Z,101724.22
2023-08-18T10:18:27.565Z,101734.78
2023-08-18T10:20:32.735Z,101727.28
2023-08-18T10:22:39.044Z,101724.13
2023-08-18T10:24:44.094Z,101726.09
2023-08-18T10:26:49.053Z,101716.06
2023-08-18T10:28:55.383Z,101701.69
2023-08-18T10:31:13.761Z,101702.94
2023-08-18T10:33:32.010Z,101703.97
2023-08-18T10:35:42.887Z,101699.25
2023-08-18T10:37:48.387Z,101695.34
2023-08-18T10:39:56.080Z,101696.50
2023-08-18T10:42:16.604Z,101695.72
2023-08-18T10:44:21.831Z,101698.59
2023-08-18T10:46:37.716Z,101707.88
2023-08-18T10:48:42.845Z,101704.72
2023-08-18T10:50:49.804Z,101700.41
2023-08-18T10:52:56.388Z,101704.31
2023-08-18T10:55:02.053Z,101700.09
2023-08-18T10:57:07.354Z,101701.91
2023-08-18T10:59:12.677Z,101691.97
2023-08-18T11:01:20.744Z,101689.06
2023-08-18T11:03:30.369Z,101684.28
2023-08-18T11:05:33.441Z,101677.97
2023-08-18T11:07:38.527Z,101674.13
2023-08-18T11:09:44.030Z,101665.44
2023-08-18T11:11:49.054Z,101664.25
2023-08-18T11:13:58.006Z,101655.47
2023-08-18T11:16:03.612Z,101655.28
2023-08-18T11:18:09.277Z,101652.06
2023-08-18T11:20:18.392Z,101649.53
2023-08-18T11:22:23.463Z,101658.81
2023-08-18T11:24:31.905Z,101662.84
2023-08-18T11:26:41.311Z,101656.50
2023-08-18T11:28:46.826Z,101642.28
2023-08-18T11:30:52.877Z,101646.84
2023-08-18T11:33:00.327Z,101644.78
2023-08-18T11:35:06.321Z,101640.66
2023-08-18T11:37:15.770Z,101628.03
2023-08-18T11:39:21.407Z,101630.94
2023-08-18T11:41:26.825Z,101636.00
2023-08-18T11:43:32.047Z,101627.91
2023-08-18T11:45:38.140Z,101630.59
2023-08-18T11:47:43.246Z,101628.69
2023-08-18T11:49:46.443Z,101624.56
2023-08-18T11:52:02.025Z,101619.78
2023-08-18T11:54:18.424Z,101616.06
2023-08-18T11:56:27.097Z,101616.94
2023-08-18T11:58:32.263Z,101615.16
2023-08-18T12:00:39.562Z,101610.13
2023-08-18T12:02:48.171Z,101604.88
2023-08-18T12:04:57.814Z,101612.31
2023-08-18T12:07:03.577Z,101611.94
2023-08-18T12:09:36.473Z,101609.41
2023-08-18T12:12:17.585Z,101607.84
2023-08-18T12:14:29.064Z,101613.00
2023-08-18T12:16:34.378Z,101610.53
2023-08-18T12:18:39.350Z,101603.53
2023-08-18T12:20:44.305Z,101601.16
2023-08-18T12:22:50.395Z,101598.53
2023-08-18T12:24:57.236Z,101592.78
2023-08-18T12:27:02.615Z,101593.09
2023-08-18T12:29:08.787Z,101593.94
2023-08-18T12:31:18.976Z,101584.16
2023-08-18T12:33:26.632Z,101584.53
2023-08-18T12:35:34.634Z,101593.78
2023-08-18T12:37:39.630Z,101591.47
2023-08-18T12:39:44.872Z,101594.19
2023-08-18T12:41:52.904Z,101585.53
2023-08-18T12:43:58.089Z,101589.31
2023-08-18T12:46:03.786Z,101584.00
2023-08-18T12:48:12.089Z,101589.16
2023-08-18T12:50:17.082Z,101586.34
2023-08-18T12:52:22.236Z,101584.91
2023-08-18T12:54:27.517Z,101575.31
2023-08-18T12:56:33.126Z,101574.34
2023-08-18T12:58:38.884Z,101587.56
2023-08-18T13:00:44.337Z,101587.16
2023-08-18T13:02:49.839Z,101590.34
2023-08-18T13:04:57.738Z,101581.06
2023-08-18T13:07:02.875Z,101586.03
2023-08-18T13:09:08.209Z,101582.59
2023-08-18T13:11:14.840Z,101584.13
2023-08-18T13:13:21.415Z,101582.13
2023-08-18T13:15:29.360Z,101589.69
2023-08-18T13:17:39.319Z,101589.53
2023-08-18T13:19:56.823Z,101588.53
2023-08-18T13:22:05.040Z,101588.75
2023-08-18T13:24:11.054Z,101587.31
2023-08-18T13:26:16.641Z,101585.25
2023-08-18T13:28:22.703Z,101580.13
2023-08-18T13:30:32.395Z,101582.16
2023-08-18T13:32:37.602Z,101570.38
2023-08-18T13:34:42.667Z,101570.34
2023-08-18T13:36:48.004Z,101574.84
2023-08-18T13:38:57.699Z,101570.06
2023-08-18T13:41:02.819Z,101566.97
2023-08-18T13:43:08.486Z,101566.13
2023-08-18T13:45:14.185Z,101568.28
2023-08-18T13:47:19.460Z,101562.25
2023-08-18T13:49:27.352Z,101557.16
2023-08-18T13:51:33.086Z,101557.16
2023-08-18T13:53:41.118Z,101560.47
2023-08-18T13:55:50.951Z,101557.19
2023-08-18T13:57:58.065Z,101559.47
2023-08-18T14:00:03.059Z,101547.88
2023-08-18T14:02:08.010Z,101553.75
2023-08-18T14:04:12.971Z,101548.41
2023-08-18T14:06:18.218Z,101553.09
2023-08-18T14:08:27.031Z,101549.09
2023-08-18T14:10:32.081Z,101551.22
2023-08-18T14:12:40.130Z,101559.09
2023-08-18T14:14:45.714Z,101549.22
2023-08-18T14:16:51.019Z,101546.25
2023-08-18T14:18:58.122Z,101545.91
2023-08-18T14:21:05.584Z,101544.50
2023-08-18T14:23:10.941Z,101544.47
2023-08-18T14:25:18.882Z,101538.13
2023-08-18T14:27:23.914Z,101535.19
2023-08-18T14:29:39.233Z,101531.34
2023-08-18T14:31:58.005Z,101542.63
2023-08-18T14:34:12.029Z,101530.47
2023-08-18T14:36:18.139Z,101535.09
2023-08-18T14:38:23.531Z,101528.22
2023-08-18T14:40:29.473Z,101529.25
2023-08-18T14:42:34.859Z,101520.97
2023-08-18T14:44:42.686Z,101526.59
2023-08-18T14:46:47.879Z,101519.34
2023-08-18T14:48:53.012Z,101519.81
2023-08-18T14:50:59.523Z,101523.66
2023-08-18T14:53:07.268Z,101521.38
2023-08-18T14:55:12.745Z,101522.84
2023-08-18T14:57:17.808Z,101523.94
2023-08-18T14:59:23.121Z,101518.97
2023-08-18T15:01:37.998Z,101520.34
2023-08-18T15:03:43.505Z,101521.47
2023-08-18T15:05:48.709Z,101514.72
2023-08-18T15:07:56.490Z,101515.84
2023-08-18T15:09:58.931Z,101516.53
2023-08-18T15:12:05.546Z,101507.59
2023-08-18T15:14:10.400Z,101509.59
2023-08-18T15:16:15.329Z,101508.72
2023-08-18T15:18:23.019Z,101504.59
2023-08-18T15:20:28.262Z,101499.81
2023-08-18T15:22:33.242Z,101501.41
2023-08-18T15:24:38.751Z,101494.97
2023-08-18T15:26:46.128Z,101492.00
2023-08-18T15:28:51.194Z,101486.06
2023-08-18T15:30:56.268Z,101481.09
2023-08-18T15:33:01.260Z,101490.50
2023-08-18T15:35:09.827Z,101485.69
2023-08-18T15:37:15.176Z,101488.28
2023-08-18T15:39:20.890Z,101489.75
2023-08-18T15:41:28.278Z,101488.00
2023-08-18T15:43:33.448Z,101488.91
2023-08-18T15:45:47.171Z,101480.59
2023-08-18T15:47:52.849Z,101479.44
2023-08-18T15:49:58.037Z,101469.91
2023-08-18T15:52:03.078Z,101474.72
2023-08-18T15:54:08.548Z,101464.25
2023-08-18T15:56:14.571Z,101464.63
2023-08-18T15:58:21.294Z,101452.97
2023-08-18T16:00:26.211Z,101442.94
2023-08-18T16:02:28.577Z,101438.19
2023-08-18T16:04:33.750Z,101435.78
2023-08-18T16:06:38.817Z,101443.41
2023-08-18T16:08:46.836Z,101439.09
2023-08-18T16:10:51.859Z,101441.66
2023-08-18T16:12:56.939Z,101444.25
2023-08-18T16:17:10.500Z,101444.03
2023-08-18T16:19:18.020Z,101447.59
2023-08-18T16:21:29.910Z,101450.66
2023-08-18T16:23:38.772Z,101439.41
2023-08-18T16:25:48.250Z,101438.13
2023-08-18T16:27:56.629Z,101438.63
2023-08-18T16:30:04.992Z,101437.66
2023-08-18T16:32:10.168Z,101444.72
2023-08-18T16:34:15.313Z,101451.81
2023-08-18T16:36:20.227Z,101445.03
2023-08-18T16:38:27.313Z,101453.63
2023-08-18T16:40:32.456Z,101454.03
2023-08-18T16:42:40.045Z,101453.66
2023-08-18T16:44:45.179Z,101460.59
2023-08-18T16:46:50.145Z,101462.69
2023-08-18T16:48:56.854Z,101462.22
2023-08-18T16:51:02.160Z,101457.13
2023-08-18T16:53:08.047Z,101447.94
2023-08-18T16:55:16.363Z,101445.25
2023-08-18T16:57:29.235Z,101444.34
2023-08-18T16:59:45.845Z,101436.88
2023-08-18T17:01:55.442Z,101432.94
2023-08-18T17:04:00.803Z,101426.19
2023-08-18T17:06:05.858Z,101425.56
2023-08-18T17:08:29.116Z,101425.47
2023-08-18T17:10:32.893Z,101420.47
2023-08-18T17:12:39.300Z,101416.28
2023-08-18T17:14:47.472Z,101410.13
2023-08-18T17:16:52.652Z,101412.91
2023-08-18T17:18:59.838Z,101411.88
2023-08-18T17:21:04.770Z,101414.81
2023-08-18T17:23:09.894Z,101423.66
2023-08-18T17:25:15.176Z,101413.38
2023-08-18T17:27:20.197Z,101414.38
2023-08-18T17:29:28.431Z,101411.06
2023-08-18T17:31:37.574Z,101409.81
2023-08-18T17:33:42.960Z,101411.84
2023-08-18T17:35:51.300Z,101416.13
2023-08-18T17:37:57.763Z,101419.00
2023-08-18T17:40:02.716Z,101422.94
2023-08-18T17:42:08.113Z,101420.09
2023-08-18T17:44:13.558Z,101405.50
2023-08-18T17:46:18.960Z,101417.81
2023-08-18T17:48:26.775Z,101412.31
2023-08-18T17:50:34.644Z,101413.72
2023-08-18T17:52:40.041Z,101412.16
2023-08-18T17:54:45.244Z,101403.94
2023-08-18T17:56:50.784Z,101399.81
2023-08-18T17:58:56.233Z,101387.50
2023-08-18T18:01:02.969Z,101379.88
2023-08-18T18:03:08.762Z,101376.63
2023-08-18T18:05:19.064Z,101383.97
2023-08-18T18:07:24.927Z,101391.97
2023-08-18T18:09:30.004Z,101390.84
2023-08-18T18:11:35.340Z,101393.97
2023-08-18T18:13:40.462Z,101391.88
2023-08-18T18:15:48.968Z,101405.75
2023-08-18T18:17:57.910Z,101402.66
2023-08-18T18:20:02.904Z,101407.59
2023-08-18T18:22:15.452Z,101404.06
2023-08-18T18:24:20.674Z,101397.56
2023-08-18T18:26:28.932Z,101400.00
2023-08-18T18:28:31.699Z,101398.28
2023-08-18T18:30:49.423Z,101398.41
2023-08-18T18:33:12.587Z,101413.16
2023-08-18T18:35:18.192Z,101406.34
2023-08-18T18:37:26.204Z,101415.38
2023-08-18T18:39:32.196Z,101416.53
2023-08-18T18:41:37.481Z,101415.13
2023-08-18T18:43:46.125Z,101411.56
2023-08-18T18:45:55.388Z,101417.94
2023-08-18T18:48:00.627Z,101409.69
2023-08-18T18:50:03.317Z,101403.59
2023-08-18T18:52:09.012Z,101407.09
2023-08-18T18:54:16.718Z,101402.31
2023-08-18T18:56:21.901Z,101398.19
2023-08-18T18:58:27.206Z,101408.03
2023-08-18T19:00:34.479Z,101403.09
2023-08-18T19:02:40.352Z,101408.91
2023-08-18T19:04:45.610Z,101400.53
2023-08-18T19:06:50.853Z,101405.34
2023-08-18T19:09:01.018Z,101422.84
2023-08-18T19:11:09.310Z,101423.25
2023-08-18T19:15:37.175Z,101423.13
2023-08-18T19:17:42.709Z,101430.94
2023-08-18T19:19:47.649Z,101426.34
2023-08-18T19:21:56.869Z,101419.88
2023-08-18T19:24:01.907Z,101417.56
2023-08-18T19:26:12.180Z,101420.50
2023-08-18T19:28:14.848Z,101420.66
2023-08-18T19:30:34.736Z,101423.09
2023-08-18T19:32:40.720Z,101424.31
2023-08-18T19:34:45.908Z,101429.03
2023-08-18T19:36:52.371Z,101427.63
2023-08-18T19:39:00.056Z,101430.97
2023-08-18T19:41:02.532Z,101422.03
2023-08-18T19:43:10.227Z,101426.38
2023-08-18T19:45:15.673Z,101421.53
2023-08-18T19:47:20.747Z,101427.47
2023-08-18T19:49:30.753Z,101414.13
2023-08-18T19:51:36.840Z,101421.19
2023-08-18T19:53:41.924Z,101411.31
2023-08-18T19:55:53.258Z,101411.44
2023-08-18T19:58:02.483Z,101407.66
2023-08-18T20:00:12.860Z,101410.00
2023-08-18T20:02:15.183Z,101414.25
2023-08-18T20:04:20.551Z,101407.31
2023-08-18T20:06:26.065Z,101401.75
2023-08-18T20:08:31.125Z,101400.91
2023-08-18T20:10:37.349Z,101394.72
2023-08-18T20:12:44.923Z,101394.97
2023-08-18T20:14:47.411Z,101391.66
2023-08-18T20:16:55.861Z,101393.25
2023-08-18T20:19:02.772Z,101394.47
2023-08-18T20:21:08.136Z,101392.91
2023-08-18T20:23:15.244Z,101390.72
2023-08-18T20:25:20.441Z,101391.78
2023-08-18T20:27:28.195Z,101393.41
2023-08-18T20:29:33.429Z,101390.56
2023-08-18T20:31:41.690Z,101394.31
2023-08-18T20:33:49.607Z,101388.03
2023-08-18T20:35:58.221Z,101385.22
2023-08-18T20:38:03.073Z,101385.94
2023-08-18T20:40:09.547Z,101381.75
2023-08-18T20:42:14.754Z,101376.94
2023-08-18T20:44:19.722Z,101379.63
2023-08-18T20:46:27.109Z,101375.25
2023-08-18T20:48:32.181Z,101381.06
2023-08-18T20:50:39.933Z,101370.16
2023-08-18T20:52:45.175Z,101376.84
2023-08-18T20:54:50.313Z,101383.94
2023-08-18T20:56:55.510Z,101384.88
2023-08-18T20:59:00.644Z,101375.41
2023-08-18T21:01:05.821Z,101382.16
2023-08-18T21:03:14.570Z,101375.06
2023-08-18T21:05:19.677Z,101382.00
2023-08-18T21:07:32.829Z,101375.22
2023-08-18T21:09:37.991Z,101385.78
2023-08-18T21:11:43.856Z,101373.38
2023-08-18T21:13:48.762Z,101367.66
2023-08-18T21:15:54.670Z,101373.75
2023-08-18T21:17:59.902Z,101375.13
2023-08-18T21:20:02.290Z,101370.75
2023-08-18T21:22:07.401Z,101368.06
2023-08-18T21:24:14.948Z,101364.78
2023-08-18T21:26:25.216Z,101366.97
2023-08-18T21:28:27.644Z,101366.50
2023-08-18T21:30:32.317Z,101366.41
2023-08-18T21:32:38.013Z,101373.69
2023-08-18T21:34:43.174Z,101370.06
2023-08-18T21:36:48.051Z,101366.28
2023-08-18T21:38:55.759Z,101368.97
2023-08-18T21:41:03.353Z,101372.97
2023-08-18T21:43:08.471Z,101372.97
2023-08-18T21:45:14.726Z,101362.41
2023-08-18T21:47:20.240Z,101364.50
2023-08-18T21:49:27.736Z,101362.66
2023-08-18T21:51:32.763Z,101355.22
2023-08-18T21:53:37.929Z,101350.31
2023-08-18T21:55:44.709Z,101350.06
2023-08-18T21:58:03.574Z,101344.13
2023-08-18T22:00:22.656Z,101347.53
2023-08-18T22:02:41.501Z,101346.91
2023-08-18T22:04:49.487Z,101343.97
2023-08-18T22:06:57.064Z,101338.78
2023-08-18T22:09:05.578Z,101331.69
2023-08-18T22:11:14.508Z,101341.56
2023-08-18T22:13:28.313Z,101339.72
2023-08-18T22:15:31.136Z,101334.25
2023-08-18T22:17:39.297Z,101337.66
2023-08-18T22:19:44.534Z,101333.25
2023-08-18T22:21:49.517Z,101333.41
2023-08-18T22:23:56.487Z,101324.38
2023-08-18T22:26:01.463Z,101320.03
2023-08-18T22:28:07.234Z,101324.75
2023-08-18T22:30:18.272Z,101321.84
2023-08-18T22:32:23.852Z,101323.53
2023-08-18T22:34:31.988Z,101316.72
2023-08-18T22:36:38.452Z,101308.69
2023-08-18T22:38:43.900Z,101308.47
2023-08-18T22:40:48.876Z,101315.78
2023-08-18T22:42:51.565Z,101311.16
2023-08-18T22:44:56.707Z,101315.31
2023-08-18T22:47:14.556Z,101315.78
2023-08-18T22:49:17.104Z,101309.44
2023-08-18T22:51:25.871Z,101305.91
2023-08-18T22:53:30.813Z,101309.47
2023-08-18T22:55:35.811Z,101306.69
2023-08-18T22:57:40.943Z,101308.25
2023-08-18T22:59:47.454Z,101294.13
2023-08-18T23:01:52.726Z,101296.09
2023-08-18T23:04:00.411Z,101289.88
2023-08-18T23:06:05.998Z,101292.69
2023-08-18T23:08:12.549Z,101295.50
2023-08-18T23:10:17.988Z,101292.81
2023-08-18T23:12:23.057Z,101294.50
2023-08-18T23:14:28.611Z,101291.25
2023-08-18T23:16:33.851Z,101285.63
2023-08-18T23:18:38.950Z,101289.75
2023-08-18T23:20:49.408Z,101286.75
2023-08-18T23:22:56.068Z,101282.50
2023-08-18T23:25:01.450Z,101286.75
2023-08-18T23:27:07.186Z,101277.22
2023-08-18T23:29:12.532Z,101277.22
2023-08-18T23:31:18.297Z,101268.22
2023-08-18T23:33:27.222Z,101268.09
2023-08-18T23:35:33.099Z,101266.38
2023-08-18T23:37:41.074Z,101269.06
2023-08-18T23:39:46.291Z,101260.06
2023-08-18T23:41:51.631Z,101261.75
2023-08-18T23:43:56.836Z,101260.75
2023-08-18T23:46:06.997Z,101260.19
2023-08-18T23:48:12.265Z,101262.00
2023-08-18T23:50:17.763Z,101250.69
2023-08-18T23:52:22.797Z,101256.44
2023-08-18T23:54:32.202Z,101247.31
2023-08-18T23:56:37.304Z,101247.53
2023-08-18T23:58:42.730Z,101254.03
